sensor_id;sensor_type;location;lat;lon;timestamp;P1;durP1;ratioP1;P2;durP2;ratioP2
69890;SDS011;57170;43.964;21.262;2024-03-29T00:00:52;8.25;;;5.15;;
69890;SDS011;57170;43.964;21.262;2024-03-29T00:03:18;10.68;;;5.53;;
69890;SDS011;57170;43.964;21.262;2024-03-29T00:05:44;12.27;;;6.78;;
69890;SDS011;57170;43.964;21.262;2024-03-29T00:08:10;11.98;;;6.68;;
69890;SDS011;57170;43.964;21.262;2024-03-29T00:10:37;11.38;;;6.45;;
69890;SDS011;57170;43.964;21.262;2024-03-29T00:13:03;12.55;;;5.45;;
69890;SDS011;57170;43.964;21.262;2024-03-29T00:15:32;10.70;;;5.85;;
69890;SDS011;57170;43.964;21.262;2024-03-29T00:17:58;7.47;;;5.80;;
69890;SDS011;57170;43.964;21.262;2024-03-29T00:20:24;10.02;;;6.15;;
69890;SDS011;57170;43.964;21.262;2024-03-29T00:22:51;10.93;;;5.85;;
69890;SDS011;57170;43.964;21.262;2024-03-29T00:25:17;8.10;;;5.05;;
69890;SDS011;57170;43.964;21.262;2024-03-29T00:27:43;9.85;;;4.75;;
69890;SDS011;57170;43.964;21.262;2024-03-29T00:30:09;11.07;;;5.72;;
69890;SDS011;57170;43.964;21.262;2024-03-29T00:32:36;9.57;;;5.90;;
69890;SDS011;57170;43.964;21.262;2024-03-29T00:35:02;10.05;;;5.18;;
69890;SDS011;57170;43.964;21.262;2024-03-29T00:37:28;9.80;;;5.45;;
69890;SDS011;57170;43.964;21.262;2024-03-29T00:39:54;10.50;;;5.15;;
69890;SDS011;57170;43.964;21.262;2024-03-29T00:42:20;12.90;;;5.03;;
69890;SDS011;57170;43.964;21.262;2024-03-29T00:44:46;10.40;;;5.78;;
69890;SDS011;57170;43.964;21.262;2024-03-29T00:47:13;9.18;;;5.60;;
69890;SDS011;57170;43.964;21.262;2024-03-29T00:49:39;11.48;;;5.75;;
69890;SDS011;57170;43.964;21.262;2024-03-29T00:52:05;8.38;;;4.60;;
69890;SDS011;57170;43.964;21.262;2024-03-29T00:54:32;9.82;;;4.93;;
69890;SDS011;57170;43.964;21.262;2024-03-29T00:56:58;8.30;;;4.97;;
69890;SDS011;57170;43.964;21.262;2024-03-29T00:59:24;7.10;;;4.85;;
69890;SDS011;57170;43.964;21.262;2024-03-29T01:01:50;9.80;;;4.90;;
69890;SDS011;57170;43.964;21.262;2024-03-29T01:04:17;8.90;;;5.72;;
69890;SDS011;57170;43.964;21.262;2024-03-29T01:06:43;18.17;;;9.85;;
69890;SDS011;57170;43.964;21.262;2024-03-29T01:09:09;14.40;;;11.20;;
69890;SDS011;57170;43.964;21.262;2024-03-29T01:11:36;14.98;;;11.18;;
69890;SDS011;57170;43.964;21.262;2024-03-29T01:14:03;17.08;;;9.55;;
69890;SDS011;57170;43.964;21.262;2024-03-29T01:16:29;16.08;;;8.65;;
69890;SDS011;57170;43.964;21.262;2024-03-29T01:18:56;17.58;;;10.00;;
69890;SDS011;57170;43.964;21.262;2024-03-29T01:21:22;15.57;;;9.05;;
69890;SDS011;57170;43.964;21.262;2024-03-29T01:23:49;14.57;;;7.90;;
69890;SDS011;57170;43.964;21.262;2024-03-29T01:26:15;11.77;;;6.97;;
69890;SDS011;57170;43.964;21.262;2024-03-29T01:28:42;15.18;;;7.55;;
69890;SDS011;57170;43.964;21.262;2024-03-29T01:31:08;14.25;;;8.13;;
69890;SDS011;57170;43.964;21.262;2024-03-29T01:33:34;12.68;;;5.20;;
69890;SDS011;57170;43.964;21.262;2024-03-29T01:36:05;11.02;;;5.88;;
69890;SDS011;57170;43.964;21.262;2024-03-29T01:38:31;12.18;;;6.72;;
69890;SDS011;57170;43.964;21.262;2024-03-29T01:40:57;10.25;;;6.32;;
69890;SDS011;57170;43.964;21.262;2024-03-29T01:43:24;9.77;;;5.35;;
69890;SDS011;57170;43.964;21.262;2024-03-29T01:45:51;10.32;;;5.35;;
69890;SDS011;57170;43.964;21.262;2024-03-29T01:48:18;11.02;;;6.50;;
69890;SDS011;57170;43.964;21.262;2024-03-29T01:50:45;11.00;;;6.40;;
69890;SDS011;57170;43.964;21.262;2024-03-29T01:53:11;9.32;;;5.07;;
69890;SDS011;57170;43.964;21.262;2024-03-29T01:55:37;12.30;;;7.18;;
69890;SDS011;57170;43.964;21.262;2024-03-29T01:58:03;12.25;;;6.30;;
69890;SDS011;57170;43.964;21.262;2024-03-29T02:00:30;12.43;;;5.82;;
69890;SDS011;57170;43.964;21.262;2024-03-29T02:02:57;14.85;;;8.25;;
69890;SDS011;57170;43.964;21.262;2024-03-29T02:05:23;10.07;;;6.05;;
69890;SDS011;57170;43.964;21.262;2024-03-29T02:07:50;7.93;;;4.32;;
69890;SDS011;57170;43.964;21.262;2024-03-29T02:10:17;11.68;;;5.47;;
69890;SDS011;57170;43.964;21.262;2024-03-29T02:12:43;9.13;;;5.30;;
69890;SDS011;57170;43.964;21.262;2024-03-29T02:15:14;11.85;;;6.05;;
69890;SDS011;57170;43.964;21.262;2024-03-29T02:17:41;9.70;;;4.80;;
69890;SDS011;57170;43.964;21.262;2024-03-29T02:20:07;8.20;;;4.60;;
69890;SDS011;57170;43.964;21.262;2024-03-29T02:22:34;11.20;;;5.72;;
69890;SDS011;57170;43.964;21.262;2024-03-29T02:25:02;10.48;;;6.40;;
69890;SDS011;57170;43.964;21.262;2024-03-29T02:27:28;10.27;;;5.50;;
69890;SDS011;57170;43.964;21.262;2024-03-29T02:29:55;9.80;;;5.68;;
69890;SDS011;57170;43.964;21.262;2024-03-29T02:32:21;12.10;;;5.82;;
69890;SDS011;57170;43.964;21.262;2024-03-29T02:34:47;15.00;;;6.78;;
69890;SDS011;57170;43.964;21.262;2024-03-29T02:37:13;10.15;;;5.65;;
69890;SDS011;57170;43.964;21.262;2024-03-29T02:39:39;11.02;;;5.22;;
69890;SDS011;57170;43.964;21.262;2024-03-29T02:42:05;9.65;;;5.68;;
69890;SDS011;57170;43.964;21.262;2024-03-29T02:44:31;10.32;;;5.35;;
69890;SDS011;57170;43.964;21.262;2024-03-29T02:46:57;9.15;;;5.38;;
69890;SDS011;57170;43.964;21.262;2024-03-29T02:49:23;9.07;;;5.55;;
69890;SDS011;57170;43.964;21.262;2024-03-29T02:51:50;10.48;;;5.22;;
69890;SDS011;57170;43.964;21.262;2024-03-29T02:54:18;11.02;;;6.30;;
69890;SDS011;57170;43.964;21.262;2024-03-29T02:56:44;9.65;;;5.63;;
69890;SDS011;57170;43.964;21.262;2024-03-29T02:59:10;8.82;;;5.97;;
69890;SDS011;57170;43.964;21.262;2024-03-29T03:01:36;7.45;;;5.55;;
69890;SDS011;57170;43.964;21.262;2024-03-29T03:04:02;11.43;;;6.28;;
69890;SDS011;57170;43.964;21.262;2024-03-29T03:06:28;8.88;;;6.07;;
69890;SDS011;57170;43.964;21.262;2024-03-29T03:08:54;10.80;;;5.50;;
69890;SDS011;57170;43.964;21.262;2024-03-29T03:11:59;9.50;;;5.10;;
69890;SDS011;57170;43.964;21.262;2024-03-29T03:14:25;11.13;;;4.75;;
69890;SDS011;57170;43.964;21.262;2024-03-29T03:16:52;10.95;;;4.32;;
69890;SDS011;57170;43.964;21.262;2024-03-29T03:19:18;9.48;;;4.57;;
69890;SDS011;57170;43.964;21.262;2024-03-29T03:21:45;8.02;;;4.70;;
69890;SDS011;57170;43.964;21.262;2024-03-29T03:24:11;11.32;;;5.25;;
69890;SDS011;57170;43.964;21.262;2024-03-29T03:26:37;10.25;;;4.68;;
69890;SDS011;57170;43.964;21.262;2024-03-29T03:29:03;7.95;;;4.68;;
69890;SDS011;57170;43.964;21.262;2024-03-29T03:31:29;7.20;;;4.63;;
69890;SDS011;57170;43.964;21.262;2024-03-29T03:33:56;10.77;;;4.53;;
69890;SDS011;57170;43.964;21.262;2024-03-29T03:36:22;9.50;;;4.47;;
69890;SDS011;57170;43.964;21.262;2024-03-29T03:38:48;7.50;;;4.47;;
69890;SDS011;57170;43.964;21.262;2024-03-29T03:41:14;10.23;;;5.80;;
69890;SDS011;57170;43.964;21.262;2024-03-29T03:43:40;6.43;;;4.93;;
69890;SDS011;57170;43.964;21.262;2024-03-29T03:46:06;8.48;;;5.18;;
69890;SDS011;57170;43.964;21.262;2024-03-29T03:48:32;7.88;;;4.20;;
69890;SDS011;57170;43.964;21.262;2024-03-29T03:50:58;8.35;;;4.28;;
69890;SDS011;57170;43.964;21.262;2024-03-29T03:53:24;8.40;;;4.07;;
69890;SDS011;57170;43.964;21.262;2024-03-29T03:55:50;7.65;;;4.53;;
69890;SDS011;57170;43.964;21.262;2024-03-29T03:58:17;7.70;;;3.95;;
69890;SDS011;57170;43.964;21.262;2024-03-29T04:00:43;12.02;;;4.85;;
69890;SDS011;57170;43.964;21.262;2024-03-29T04:03:09;8.90;;;4.68;;
69890;SDS011;57170;43.964;21.262;2024-03-29T04:05:36;9.60;;;5.43;;
69890;SDS011;57170;43.964;21.262;2024-03-29T04:08:02;12.40;;;6.50;;
69890;SDS011;57170;43.964;21.262;2024-03-29T04:10:28;7.82;;;4.35;;
69890;SDS011;57170;43.964;21.262;2024-03-29T04:12:54;8.63;;;4.53;;
69890;SDS011;57170;43.964;21.262;2024-03-29T04:15:20;6.80;;;3.78;;
69890;SDS011;57170;43.964;21.262;2024-03-29T04:17:47;10.50;;;4.25;;
69890;SDS011;57170;43.964;21.262;2024-03-29T04:20:13;9.05;;;4.30;;
69890;SDS011;57170;43.964;21.262;2024-03-29T04:22:39;6.97;;;4.40;;
69890;SDS011;57170;43.964;21.262;2024-03-29T04:25:05;7.07;;;4.20;;
69890;SDS011;57170;43.964;21.262;2024-03-29T04:27:31;7.93;;;4.93;;
69890;SDS011;57170;43.964;21.262;2024-03-29T04:29:58;10.95;;;5.25;;
69890;SDS011;57170;43.964;21.262;2024-03-29T04:32:25;10.70;;;5.00;;
69890;SDS011;57170;43.964;21.262;2024-03-29T04:34:51;11.40;;;6.05;;
69890;SDS011;57170;43.964;21.262;2024-03-29T04:37:17;13.52;;;7.63;;
69890;SDS011;57170;43.964;21.262;2024-03-29T04:39:44;10.80;;;5.90;;
69890;SDS011;57170;43.964;21.262;2024-03-29T04:42:11;8.25;;;5.05;;
69890;SDS011;57170;43.964;21.262;2024-03-29T04:44:37;10.32;;;4.40;;
69890;SDS011;57170;43.964;21.262;2024-03-29T04:47:04;9.35;;;4.60;;
69890;SDS011;57170;43.964;21.262;2024-03-29T04:49:30;9.77;;;5.47;;
69890;SDS011;57170;43.964;21.262;2024-03-29T04:51:59;8.82;;;5.18;;
69890;SDS011;57170;43.964;21.262;2024-03-29T04:54:26;7.25;;;4.68;;
69890;SDS011;57170;43.964;21.262;2024-03-29T04:56:52;8.02;;;4.90;;
69890;SDS011;57170;43.964;21.262;2024-03-29T04:59:19;7.55;;;5.00;;
69890;SDS011;57170;43.964;21.262;2024-03-29T05:01:46;12.70;;;6.18;;
69890;SDS011;57170;43.964;21.262;2024-03-29T05:04:16;12.93;;;6.00;;
69890;SDS011;57170;43.964;21.262;2024-03-29T05:06:50;10.20;;;5.03;;
69890;SDS011;57170;43.964;21.262;2024-03-29T05:09:16;9.15;;;4.70;;
69890;SDS011;57170;43.964;21.262;2024-03-29T05:11:42;8.05;;;4.28;;
69890;SDS011;57170;43.964;21.262;2024-03-29T05:14:08;7.00;;;4.10;;
69890;SDS011;57170;43.964;21.262;2024-03-29T05:16:35;9.55;;;3.97;;
69890;SDS011;57170;43.964;21.262;2024-03-29T05:19:01;8.70;;;3.97;;
69890;SDS011;57170;43.964;21.262;2024-03-29T05:21:27;7.72;;;4.20;;
69890;SDS011;57170;43.964;21.262;2024-03-29T05:23:53;9.45;;;4.82;;
69890;SDS011;57170;43.964;21.262;2024-03-29T05:26:19;7.75;;;4.07;;
69890;SDS011;57170;43.964;21.262;2024-03-29T05:28:45;8.77;;;4.80;;
69890;SDS011;57170;43.964;21.262;2024-03-29T05:31:13;10.02;;;4.78;;
69890;SDS011;57170;43.964;21.262;2024-03-29T05:33:40;11.88;;;5.82;;
69890;SDS011;57170;43.964;21.262;2024-03-29T05:36:07;8.95;;;4.43;;
69890;SDS011;57170;43.964;21.262;2024-03-29T05:38:35;10.93;;;4.75;;
69890;SDS011;57170;43.964;21.262;2024-03-29T05:41:01;11.30;;;5.10;;
69890;SDS011;57170;43.964;21.262;2024-03-29T05:43:27;12.98;;;8.57;;
69890;SDS011;57170;43.964;21.262;2024-03-29T05:45:54;30.10;;;17.73;;
69890;SDS011;57170;43.964;21.262;2024-03-29T05:48:20;39.05;;;26.80;;
69890;SDS011;57170;43.964;21.262;2024-03-29T05:50:46;24.38;;;13.88;;
69890;SDS011;57170;43.964;21.262;2024-03-29T05:53:12;16.08;;;11.45;;
69890;SDS011;57170;43.964;21.262;2024-03-29T05:55:38;29.73;;;17.48;;
69890;SDS011;57170;43.964;21.262;2024-03-29T05:58:04;15.82;;;9.82;;
69890;SDS011;57170;43.964;21.262;2024-03-29T06:00:33;23.48;;;12.57;;
69890;SDS011;57170;43.964;21.262;2024-03-29T06:03:00;10.07;;;5.20;;
69890;SDS011;57170;43.964;21.262;2024-03-29T06:05:28;14.45;;;8.07;;
69890;SDS011;57170;43.964;21.262;2024-03-29T06:07:55;13.25;;;6.88;;
69890;SDS011;57170;43.964;21.262;2024-03-29T06:10:21;11.88;;;7.75;;
69890;SDS011;57170;43.964;21.262;2024-03-29T06:12:47;10.15;;;6.68;;
69890;SDS011;57170;43.964;21.262;2024-03-29T06:15:13;15.30;;;8.20;;
69890;SDS011;57170;43.964;21.262;2024-03-29T06:17:58;17.73;;;9.25;;
69890;SDS011;57170;43.964;21.262;2024-03-29T06:20:24;12.15;;;8.65;;
69890;SDS011;57170;43.964;21.262;2024-03-29T06:22:50;18.73;;;9.38;;
69890;SDS011;57170;43.964;21.262;2024-03-29T06:25:16;20.95;;;9.05;;
69890;SDS011;57170;43.964;21.262;2024-03-29T06:27:42;16.13;;;9.55;;
69890;SDS011;57170;43.964;21.262;2024-03-29T06:30:12;14.63;;;7.93;;
69890;SDS011;57170;43.964;21.262;2024-03-29T06:32:38;13.90;;;8.63;;
69890;SDS011;57170;43.964;21.262;2024-03-29T06:35:05;11.93;;;7.07;;
69890;SDS011;57170;43.964;21.262;2024-03-29T06:37:31;11.20;;;6.93;;
69890;SDS011;57170;43.964;21.262;2024-03-29T06:39:57;11.77;;;5.63;;
69890;SDS011;57170;43.964;21.262;2024-03-29T06:42:24;11.02;;;4.85;;
69890;SDS011;57170;43.964;21.262;2024-03-29T06:44:50;9.07;;;4.85;;
69890;SDS011;57170;43.964;21.262;2024-03-29T06:47:17;7.85;;;4.88;;
69890;SDS011;57170;43.964;21.262;2024-03-29T06:49:43;10.27;;;5.05;;
69890;SDS011;57170;43.964;21.262;2024-03-29T06:52:10;10.25;;;5.60;;
69890;SDS011;57170;43.964;21.262;2024-03-29T06:54:36;9.70;;;5.40;;
69890;SDS011;57170;43.964;21.262;2024-03-29T06:57:02;8.80;;;5.30;;
69890;SDS011;57170;43.964;21.262;2024-03-29T06:59:28;7.70;;;5.22;;
69890;SDS011;57170;43.964;21.262;2024-03-29T07:01:55;13.88;;;6.15;;
69890;SDS011;57170;43.964;21.262;2024-03-29T07:04:24;12.55;;;5.88;;
69890;SDS011;57170;43.964;21.262;2024-03-29T07:06:50;9.68;;;6.00;;
69890;SDS011;57170;43.964;21.262;2024-03-29T07:09:20;10.88;;;6.88;;
69890;SDS011;57170;43.964;21.262;2024-03-29T07:11:47;12.00;;;6.40;;
69890;SDS011;57170;43.964;21.262;2024-03-29T07:14:14;11.27;;;5.97;;
69890;SDS011;57170;43.964;21.262;2024-03-29T07:16:40;11.13;;;5.85;;
69890;SDS011;57170;43.964;21.262;2024-03-29T07:19:06;8.95;;;5.90;;
69890;SDS011;57170;43.964;21.262;2024-03-29T07:21:32;10.93;;;5.45;;
69890;SDS011;57170;43.964;21.262;2024-03-29T07:23:58;10.07;;;5.25;;
69890;SDS011;57170;43.964;21.262;2024-03-29T07:26:24;8.23;;;5.57;;
69890;SDS011;57170;43.964;21.262;2024-03-29T07:28:51;10.23;;;6.05;;
69890;SDS011;57170;43.964;21.262;2024-03-29T07:31:17;8.43;;;5.50;;
69890;SDS011;57170;43.964;21.262;2024-03-29T07:33:43;13.82;;;6.90;;
69890;SDS011;57170;43.964;21.262;2024-03-29T07:36:09;9.57;;;5.72;;
69890;SDS011;57170;43.964;21.262;2024-03-29T07:38:36;12.15;;;7.05;;
69890;SDS011;57170;43.964;21.262;2024-03-29T07:41:03;11.30;;;5.75;;
69890;SDS011;57170;43.964;21.262;2024-03-29T07:43:41;12.30;;;6.25;;
69890;SDS011;57170;43.964;21.262;2024-03-29T07:46:07;9.35;;;5.57;;
69890;SDS011;57170;43.964;21.262;2024-03-29T07:48:34;10.10;;;5.18;;
69890;SDS011;57170;43.964;21.262;2024-03-29T07:51:03;10.15;;;6.05;;
69890;SDS011;57170;43.964;21.262;2024-03-29T07:53:30;9.13;;;5.60;;
69890;SDS011;57170;43.964;21.262;2024-03-29T07:55:56;8.05;;;4.78;;
69890;SDS011;57170;43.964;21.262;2024-03-29T07:58:22;7.80;;;4.40;;
69890;SDS011;57170;43.964;21.262;2024-03-29T08:00:49;8.07;;;4.50;;
69890;SDS011;57170;43.964;21.262;2024-03-29T08:03:15;7.82;;;4.20;;
69890;SDS011;57170;43.964;21.262;2024-03-29T08:05:41;9.27;;;4.60;;
69890;SDS011;57170;43.964;21.262;2024-03-29T08:08:08;9.32;;;3.97;;
69890;SDS011;57170;43.964;21.262;2024-03-29T08:10:34;6.90;;;3.83;;
69890;SDS011;57170;43.964;21.262;2024-03-29T08:13:00;7.38;;;3.88;;
69890;SDS011;57170;43.964;21.262;2024-03-29T08:15:26;9.10;;;4.10;;
69890;SDS011;57170;43.964;21.262;2024-03-29T08:17:52;8.98;;;3.70;;
69890;SDS011;57170;43.964;21.262;2024-03-29T08:20:19;8.05;;;3.90;;
69890;SDS011;57170;43.964;21.262;2024-03-29T08:22:45;8.60;;;3.97;;
69890;SDS011;57170;43.964;21.262;2024-03-29T08:25:11;9.02;;;4.07;;
69890;SDS011;57170;43.964;21.262;2024-03-29T08:27:37;9.00;;;5.10;;
69890;SDS011;57170;43.964;21.262;2024-03-29T08:30:04;7.20;;;3.50;;
69890;SDS011;57170;43.964;21.262;2024-03-29T08:32:31;10.38;;;4.25;;
69890;SDS011;57170;43.964;21.262;2024-03-29T08:34:58;8.30;;;4.55;;
69890;SDS011;57170;43.964;21.262;2024-03-29T08:37:24;7.72;;;3.30;;
69890;SDS011;57170;43.964;21.262;2024-03-29T08:39:50;6.15;;;3.28;;
69890;SDS011;57170;43.964;21.262;2024-03-29T08:42:16;6.68;;;3.00;;
69890;SDS011;57170;43.964;21.262;2024-03-29T08:44:42;6.90;;;2.92;;
69890;SDS011;57170;43.964;21.262;2024-03-29T08:47:08;9.43;;;3.58;;
69890;SDS011;57170;43.964;21.262;2024-03-29T08:49:35;7.00;;;3.55;;
69890;SDS011;57170;43.964;21.262;2024-03-29T08:52:01;6.55;;;3.50;;
69890;SDS011;57170;43.964;21.262;2024-03-29T08:54:30;8.45;;;3.45;;
69890;SDS011;57170;43.964;21.262;2024-03-29T08:56:56;9.70;;;3.20;;
69890;SDS011;57170;43.964;21.262;2024-03-29T08:59:22;5.65;;;3.42;;
69890;SDS011;57170;43.964;21.262;2024-03-29T09:01:49;6.88;;;3.10;;
69890;SDS011;57170;43.964;21.262;2024-03-29T09:04:15;6.75;;;3.40;;
69890;SDS011;57170;43.964;21.262;2024-03-29T09:06:41;5.82;;;3.08;;
69890;SDS011;57170;43.964;21.262;2024-03-29T09:09:08;7.13;;;3.65;;
69890;SDS011;57170;43.964;21.262;2024-03-29T09:11:35;6.18;;;3.63;;
69890;SDS011;57170;43.964;21.262;2024-03-29T09:14:01;5.93;;;3.17;;
69890;SDS011;57170;43.964;21.262;2024-03-29T09:16:27;6.40;;;3.20;;
69890;SDS011;57170;43.964;21.262;2024-03-29T09:18:55;8.13;;;3.30;;
69890;SDS011;57170;43.964;21.262;2024-03-29T09:21:21;7.68;;;3.17;;
69890;SDS011;57170;43.964;21.262;2024-03-29T09:23:47;6.22;;;3.90;;
69890;SDS011;57170;43.964;21.262;2024-03-29T09:26:15;6.53;;;2.72;;
69890;SDS011;57170;43.964;21.262;2024-03-29T09:28:42;5.60;;;3.08;;
69890;SDS011;57170;43.964;21.262;2024-03-29T09:31:08;8.52;;;3.15;;
69890;SDS011;57170;43.964;21.262;2024-03-29T09:33:34;5.97;;;2.85;;
69890;SDS011;57170;43.964;21.262;2024-03-29T09:36:00;7.82;;;3.20;;
69890;SDS011;57170;43.964;21.262;2024-03-29T09:38:28;5.93;;;3.05;;
69890;SDS011;57170;43.964;21.262;2024-03-29T09:43:32;5.85;;;3.28;;
69890;SDS011;57170;43.964;21.262;2024-03-29T09:45:58;7.25;;;2.83;;
69890;SDS011;57170;43.964;21.262;2024-03-29T09:48:25;6.45;;;2.58;;
69890;SDS011;57170;43.964;21.262;2024-03-29T09:50:52;6.55;;;2.67;;
69890;SDS011;57170;43.964;21.262;2024-03-29T09:53:19;7.80;;;3.13;;
69890;SDS011;57170;43.964;21.262;2024-03-29T09:55:45;5.68;;;2.95;;
69890;SDS011;57170;43.964;21.262;2024-03-29T09:58:12;8.98;;;2.53;;
69890;SDS011;57170;43.964;21.262;2024-03-29T10:00:38;7.50;;;3.03;;
69890;SDS011;57170;43.964;21.262;2024-03-29T10:03:05;6.82;;;3.10;;
69890;SDS011;57170;43.964;21.262;2024-03-29T10:05:32;6.38;;;2.58;;
69890;SDS011;57170;43.964;21.262;2024-03-29T10:07:59;9.77;;;2.92;;
69890;SDS011;57170;43.964;21.262;2024-03-29T10:10:31;6.20;;;2.35;;
69890;SDS011;57170;43.964;21.262;2024-03-29T10:12:57;7.20;;;3.17;;
69890;SDS011;57170;43.964;21.262;2024-03-29T10:15:24;6.45;;;3.15;;
69890;SDS011;57170;43.964;21.262;2024-03-29T10:17:52;5.95;;;2.85;;
69890;SDS011;57170;43.964;21.262;2024-03-29T10:20:18;5.97;;;2.85;;
69890;SDS011;57170;43.964;21.262;2024-03-29T10:22:45;7.35;;;3.00;;
69890;SDS011;57170;43.964;21.262;2024-03-29T10:25:15;10.85;;;3.00;;
69890;SDS011;57170;43.964;21.262;2024-03-29T10:27:41;8.45;;;2.85;;
69890;SDS011;57170;43.964;21.262;2024-03-29T10:30:08;7.20;;;2.90;;
69890;SDS011;57170;43.964;21.262;2024-03-29T10:32:39;8.45;;;3.17;;
69890;SDS011;57170;43.964;21.262;2024-03-29T10:35:05;6.50;;;2.80;;
69890;SDS011;57170;43.964;21.262;2024-03-29T10:37:32;7.80;;;3.10;;
69890;SDS011;57170;43.964;21.262;2024-03-29T10:40:05;8.38;;;3.25;;
69890;SDS011;57170;43.964;21.262;2024-03-29T10:42:31;6.63;;;3.08;;
69890;SDS011;57170;43.964;21.262;2024-03-29T10:45:00;7.75;;;3.20;;
69890;SDS011;57170;43.964;21.262;2024-03-29T10:47:27;6.55;;;2.80;;
69890;SDS011;57170;43.964;21.262;2024-03-29T10:49:55;8.13;;;3.40;;
69890;SDS011;57170;43.964;21.262;2024-03-29T10:52:22;8.48;;;3.30;;
69890;SDS011;57170;43.964;21.262;2024-03-29T10:54:51;6.80;;;2.95;;
69890;SDS011;57170;43.964;21.262;2024-03-29T11:04:58;8.75;;;3.00;;
69890;SDS011;57170;43.964;21.262;2024-03-29T11:07:31;9.82;;;2.92;;
69890;SDS011;57170;43.964;21.262;2024-03-29T11:10:00;5.70;;;2.90;;
69890;SDS011;57170;43.964;21.262;2024-03-29T11:12:28;6.47;;;2.67;;
69890;SDS011;57170;43.964;21.262;2024-03-29T11:15:00;7.63;;;2.92;;
69890;SDS011;57170;43.964;21.262;2024-03-29T11:17:28;10.90;;;3.45;;
69890;SDS011;57170;43.964;21.262;2024-03-29T11:20:00;14.00;;;3.35;;
69890;SDS011;57170;43.964;21.262;2024-03-29T11:22:27;54.10;;;8.35;;
69890;SDS011;57170;43.964;21.262;2024-03-29T11:24:54;16.20;;;3.97;;
69890;SDS011;57170;43.964;21.262;2024-03-29T11:27:23;27.63;;;5.18;;
69890;SDS011;57170;43.964;21.262;2024-03-29T11:29:49;27.23;;;4.82;;
69890;SDS011;57170;43.964;21.262;2024-03-29T11:32:36;17.80;;;4.10;;
69890;SDS011;57170;43.964;21.262;2024-03-29T11:35:13;8.77;;;2.70;;
69890;SDS011;57170;43.964;21.262;2024-03-29T11:37:40;12.23;;;4.30;;
69890;SDS011;57170;43.964;21.262;2024-03-29T11:40:06;6.90;;;2.95;;
69890;SDS011;57170;43.964;21.262;2024-03-29T11:42:37;7.00;;;3.03;;
69890;SDS011;57170;43.964;21.262;2024-03-29T11:45:04;11.27;;;3.28;;
69890;SDS011;57170;43.964;21.262;2024-03-29T11:47:32;5.10;;;2.78;;
69890;SDS011;57170;43.964;21.262;2024-03-29T11:49:59;15.02;;;3.28;;
69890;SDS011;57170;43.964;21.262;2024-03-29T11:52:26;10.07;;;3.42;;
69890;SDS011;57170;43.964;21.262;2024-03-29T11:54:56;7.32;;;2.97;;
69890;SDS011;57170;43.964;21.262;2024-03-29T11:57:23;7.03;;;2.30;;
69890;SDS011;57170;43.964;21.262;2024-03-29T11:59:49;13.57;;;3.45;;
69890;SDS011;57170;43.964;21.262;2024-03-29T12:02:16;6.78;;;2.53;;
69890;SDS011;57170;43.964;21.262;2024-03-29T12:04:42;7.85;;;3.42;;
69890;SDS011;57170;43.964;21.262;2024-03-29T12:07:08;6.85;;;2.55;;
69890;SDS011;57170;43.964;21.262;2024-03-29T12:09:35;6.38;;;2.53;;
69890;SDS011;57170;43.964;21.262;2024-03-29T12:12:04;6.13;;;2.17;;
69890;SDS011;57170;43.964;21.262;2024-03-29T12:14:33;8.05;;;2.78;;
69890;SDS011;57170;43.964;21.262;2024-03-29T12:17:01;11.05;;;2.97;;
69890;SDS011;57170;43.964;21.262;2024-03-29T12:19:28;6.57;;;2.30;;
69890;SDS011;57170;43.964;21.262;2024-03-29T12:21:56;10.10;;;2.47;;
69890;SDS011;57170;43.964;21.262;2024-03-29T12:24:22;9.25;;;3.17;;
69890;SDS011;57170;43.964;21.262;2024-03-29T12:26:48;8.02;;;2.95;;
69890;SDS011;57170;43.964;21.262;2024-03-29T12:29:15;6.35;;;2.72;;
69890;SDS011;57170;43.964;21.262;2024-03-29T12:31:41;5.47;;;2.05;;
69890;SDS011;57170;43.964;21.262;2024-03-29T12:34:07;7.00;;;2.45;;
69890;SDS011;57170;43.964;21.262;2024-03-29T12:36:33;15.80;;;3.20;;
69890;SDS011;57170;43.964;21.262;2024-03-29T12:38:59;5.47;;;2.75;;
69890;SDS011;57170;43.964;21.262;2024-03-29T12:41:31;6.80;;;2.53;;
69890;SDS011;57170;43.964;21.262;2024-03-29T12:43:57;7.25;;;2.78;;
69890;SDS011;57170;43.964;21.262;2024-03-29T12:46:24;9.60;;;3.17;;
69890;SDS011;57170;43.964;21.262;2024-03-29T12:48:58;9.85;;;2.90;;
69890;SDS011;57170;43.964;21.262;2024-03-29T12:51:26;7.40;;;2.65;;
69890;SDS011;57170;43.964;21.262;2024-03-29T12:53:53;7.88;;;2.80;;
69890;SDS011;57170;43.964;21.262;2024-03-29T12:56:20;5.88;;;2.45;;
69890;SDS011;57170;43.964;21.262;2024-03-29T12:58:46;9.80;;;3.00;;
69890;SDS011;57170;43.964;21.262;2024-03-29T13:01:12;8.00;;;2.58;;
69890;SDS011;57170;43.964;21.262;2024-03-29T13:03:38;4.80;;;2.30;;
69890;SDS011;57170;43.964;21.262;2024-03-29T13:06:07;5.38;;;2.60;;
69890;SDS011;57170;43.964;21.262;2024-03-29T13:08:33;9.73;;;2.72;;
69890;SDS011;57170;43.964;21.262;2024-03-29T13:11:01;12.45;;;3.35;;
69890;SDS011;57170;43.964;21.262;2024-03-29T13:13:27;14.25;;;3.55;;
69890;SDS011;57170;43.964;21.262;2024-03-29T13:15:53;129.20;;;10.43;;
69890;SDS011;57170;43.964;21.262;2024-03-29T13:18:19;32.40;;;5.55;;
69890;SDS011;57170;43.964;21.262;2024-03-29T13:20:46;14.35;;;4.00;;
69890;SDS011;57170;43.964;21.262;2024-03-29T13:23:12;9.38;;;3.10;;
69890;SDS011;57170;43.964;21.262;2024-03-29T13:25:39;6.85;;;3.22;;
69890;SDS011;57170;43.964;21.262;2024-03-29T13:28:05;10.45;;;2.78;;
69890;SDS011;57170;43.964;21.262;2024-03-29T13:30:32;7.93;;;2.35;;
69890;SDS011;57170;43.964;21.262;2024-03-29T13:32:58;8.50;;;2.92;;
69890;SDS011;57170;43.964;21.262;2024-03-29T13:35:24;10.85;;;2.88;;
69890;SDS011;57170;43.964;21.262;2024-03-29T13:37:51;7.43;;;3.35;;
69890;SDS011;57170;43.964;21.262;2024-03-29T13:40:21;7.70;;;3.28;;
69890;SDS011;57170;43.964;21.262;2024-03-29T13:42:48;7.70;;;2.90;;
69890;SDS011;57170;43.964;21.262;2024-03-29T13:45:14;10.15;;;4.18;;
69890;SDS011;57170;43.964;21.262;2024-03-29T13:47:41;10.07;;;3.30;;
69890;SDS011;57170;43.964;21.262;2024-03-29T13:50:08;10.57;;;3.40;;
69890;SDS011;57170;43.964;21.262;2024-03-29T13:52:35;7.35;;;2.88;;
69890;SDS011;57170;43.964;21.262;2024-03-29T13:55:02;5.93;;;2.88;;
69890;SDS011;57170;43.964;21.262;2024-03-29T13:57:31;8.73;;;3.65;;
69890;SDS011;57170;43.964;21.262;2024-03-29T13:59:57;7.40;;;3.28;;
69890;SDS011;57170;43.964;21.262;2024-03-29T14:02:23;8.70;;;3.05;;
69890;SDS011;57170;43.964;21.262;2024-03-29T14:04:51;7.18;;;3.38;;
69890;SDS011;57170;43.964;21.262;2024-03-29T14:07:17;7.43;;;2.72;;
69890;SDS011;57170;43.964;21.262;2024-03-29T14:09:43;6.50;;;3.03;;
69890;SDS011;57170;43.964;21.262;2024-03-29T14:12:10;5.93;;;3.08;;
69890;SDS011;57170;43.964;21.262;2024-03-29T14:14:37;9.80;;;3.30;;
69890;SDS011;57170;43.964;21.262;2024-03-29T14:17:03;7.50;;;2.90;;
69890;SDS011;57170;43.964;21.262;2024-03-29T14:19:31;6.63;;;3.05;;
69890;SDS011;57170;43.964;21.262;2024-03-29T14:21:59;20.20;;;4.50;;
69890;SDS011;57170;43.964;21.262;2024-03-29T14:24:25;8.73;;;3.22;;
69890;SDS011;57170;43.964;21.262;2024-03-29T14:26:52;6.38;;;3.47;;
69890;SDS011;57170;43.964;21.262;2024-03-29T14:29:18;19.02;;;4.00;;
69890;SDS011;57170;43.964;21.262;2024-03-29T14:31:49;7.22;;;3.40;;
69890;SDS011;57170;43.964;21.262;2024-03-29T14:34:16;12.05;;;3.88;;
69890;SDS011;57170;43.964;21.262;2024-03-29T14:36:46;10.35;;;3.25;;